Time;durP1;ratioP1;P1;durP2;ratioP2;P2;SDS_P1;SDS_P2;PMS_P1;PMS_P2;Temp;Humidity;BMP_temperature;BMP_pressure;BME280_temperature;BME280_humidity;BME280_pressure;Samples;Min_cycle;Max_cycle;Signal;HPM_P1;HPM_P2
2023/01/01 00:00:38;;;;;;;1.60;1.10;;;15.10;96.50;;;;;;5020460;28;20514;-72
2023/01/01 00:03:05;;;;;;;1.60;1.30;;;15.10;96.80;;;;;;5006112;28;20491;-72
2023/01/01 00:05:32;;;;;;;2.17;1.97;;;15.10;96.20;;;;;;5019642;28;20479;-72
2023/01/01 00:07:59;;;;;;;7.00;6.60;;;15.10;96.10;;;;;;5004814;28;20885;-72
2023/01/01 00:10:27;;;;;;;1.57;1.00;;;15.10;95.80;;;;;;5018654;28;20467;-72
2023/01/01 00:12:55;;;;;;;1.70;1.40;;;15.10;95.80;;;;;;5005429;28;20918;-72
2023/01/01 00:15:23;;;;;;;3.50;1.50;;;15.20;95.60;;;;;;5021013;28;21066;-72
2023/01/01 00:17:50;;;;;;;1.90;1.70;;;15.20;95.30;;;;;;5002997;28;20506;-72
2023/01/01 00:20:17;;;;;;;1.57;1.00;;;15.20;94.60;;;;;;5024454;28;20467;-72
2023/01/01 00:22:46;;;;;;;2.03;1.83;;;15.20;94.80;;;;;;5007641;28;20491;-73
2023/01/01 00:25:13;;;;;;;1.60;1.10;;;15.20;94.30;;;;;;5024631;28;20486;-73
2023/01/01 00:27:41;;;;;;;1.60;1.00;;;15.30;94.20;;;;;;5004100;28;20502;-73
2023/01/01 00:30:10;;;;;;;1.60;1.00;;;15.30;94.00;;;;;;5022261;28;20472;-72
2023/01/01 00:32:38;;;;;;;1.60;1.23;;;15.30;93.30;;;;;;5007838;28;20578;-71
2023/01/01 00:35:06;;;;;;;1.57;1.10;;;15.30;92.50;;;;;;5023236;28;20490;-72
2023/01/01 00:37:33;;;;;;;1.60;1.00;;;15.30;92.60;;;;;;5011004;28;20516;-72
2023/01/01 00:40:00;;;;;;;2.23;2.03;;;15.30;92.50;;;;;;5024665;28;20478;-71
2023/01/01 00:42:28;;;;;;;1.60;1.10;;;15.30;92.90;;;;;;5006371;28;20480;-72
2023/01/01 00:44:55;;;;;;;1.60;1.27;;;15.20;93.40;;;;;;5024151;28;20759;-72
2023/01/01 00:47:23;;;;;;;1.57;1.00;;;15.10;92.90;;;;;;5003099;28;20484;-74
2023/01/01 00:49:51;;;;;;;1.53;1.00;;;15.10;92.70;;;;;;5023432;28;20506;-71
2023/01/01 00:52:18;;;;;;;1.60;1.00;;;15.10;93.10;;;;;;5005778;28;20484;-71
2023/01/01 00:54:45;;;;;;;1.57;1.00;;;15.00;93.30;;;;;;5021255;28;21116;-72
2023/01/01 00:57:12;;;;;;;2.80;2.20;;;15.00;93.70;;;;;;5005397;28;20492;-71
2023/01/01 00:59:39;;;;;;;1.60;1.00;;;14.90;94.30;;;;;;5020266;28;20467;-71
2023/01/01 01:02:05;;;;;;;1.57;1.00;;;14.80;94.30;;;;;;5007270;28;20482;-72
2023/01/01 01:04:32;;;;;;;1.60;1.10;;;14.80;94.30;;;;;;5023672;28;20663;-71
2023/01/01 01:07:00;;;;;;;1.60;1.10;;;14.80;94.30;;;;;;5022338;28;20485;-71
2023/01/01 01:09:27;;;;;;;1.57;1.00;;;14.70;94.30;;;;;;5029580;28;20486;-71
2023/01/01 01:11:54;;;;;;;1.60;1.00;;;14.70;93.70;;;;;;5017390;28;20565;-71
2023/01/01 01:14:20;;;;;;;1.60;1.00;;;14.70;93.20;;;;;;5027253;28;20538;-72
2023/01/01 01:16:48;;;;;;;1.57;1.00;;;14.70;93.70;;;;;;5007843;28;20521;-71
2023/01/01 01:19:17;;;;;;;1.57;1.00;;;14.70;92.70;;;;;;5017950;28;20474;-71
2023/01/01 01:21:46;;;;;;;1.60;1.00;;;14.80;93.20;;;;;;5021624;28;20993;-71
2023/01/01 01:24:14;;;;;;;1.70;1.40;;;14.70;93.10;;;;;;5025821;28;20734;-71
2023/01/01 01:26:40;;;;;;;1.60;1.00;;;14.70;93.40;;;;;;5009834;28;20484;-71
2023/01/01 01:29:07;;;;;;;1.53;1.00;;;14.70;93.00;;;;;;5017191;28;20468;-72
2023/01/01 01:31:34;;;;;;;1.60;1.00;;;14.70;93.40;;;;;;5010517;28;20475;-72
2023/01/01 01:34:01;;;;;;;2.50;2.30;;;14.70;93.90;;;;;;5017987;28;20975;-71
2023/01/01 01:36:28;;;;;;;1.60;1.00;;;14.60;93.80;;;;;;5008895;28;20475;-72
2023/01/01 01:38:57;;;;;;;1.57;1.00;;;14.60;93.10;;;;;;5016319;28;20463;-72
2023/01/01 01:41:26;;;;;;;1.53;1.00;;;14.60;93.40;;;;;;5005892;28;21056;-72
2023/01/01 01:43:57;;;;;;;1.60;1.00;;;14.60;93.70;;;;;;5016329;28;20861;-72
2023/01/01 01:46:32;;;;;;;1.60;1.00;;;14.60;93.80;;;;;;5036470;22;20549;-72
2023/01/01 01:49:02;;;;;;;1.53;1.00;;;14.50;93.60;;;;;;5036230;28;20966;-72
2023/01/01 01:51:34;;;;;;;1.90;1.50;;;14.50;92.90;;;;;;5032712;28;20479;-73
2023/01/01 01:54:06;;;;;;;3.00;2.80;;;14.50;92.90;;;;;;5035552;28;20963;-73
2023/01/01 01:56:45;;;;;;;1.60;1.00;;;14.50;92.30;;;;;;5016269;28;20488;-72
2023/01/01 01:59:12;;;;;;;1.50;1.00;;;14.50;92.50;;;;;;5018697;28;20451;-72
2023/01/01 02:01:39;;;;;;;1.60;1.10;;;14.50;92.10;;;;;;5010789;28;20847;-73
2023/01/01 02:04:06;;;;;;;1.57;1.00;;;14.50;92.30;;;;;;5017711;28;20518;-73
2023/01/01 02:06:34;;;;;;;1.60;1.07;;;14.50;91.80;;;;;;5017367;28;20490;-72
2023/01/01 02:09:04;;;;;;;1.57;1.00;;;14.50;91.70;;;;;;5033212;28;20456;-72
2023/01/01 02:11:31;;;;;;;1.57;1.00;;;14.50;91.20;;;;;;5014278;28;20479;-72
2023/01/01 02:14:00;;;;;;;1.60;1.10;;;14.60;91.50;;;;;;5030271;28;20873;-73
2023/01/01 02:16:36;;;;;;;1.60;1.10;;;14.60;91.50;;;;;;5016923;28;20483;-72
2023/01/01 02:19:12;;;;;;;1.50;1.00;;;14.60;91.00;;;;;;5028911;28;21011;-72
2023/01/01 02:21:52;;;;;;;1.60;1.00;;;14.60;90.80;;;;;;5018316;28;20501;-72
2023/01/01 02:24:36;;;;;;;1.70;1.37;;;14.60;90.50;;;;;;5034298;28;20578;-72
2023/01/01 02:27:07;;;;;;;1.53;1.03;;;14.60;90.80;;;;;;5024118;28;20482;-72
2023/01/01 02:29:42;;;;;;;1.50;1.00;;;14.60;90.50;;;;;;5029941;28;20459;-72
2023/01/01 02:32:15;;;;;;;1.60;1.10;;;14.60;91.00;;;;;;4994092;28;20483;-73
2023/01/01 02:34:46;;;;;;;1.60;1.10;;;14.70;90.50;;;;;;5019242;28;20454;-73
2023/01/01 02:37:16;;;;;;;1.57;1.00;;;14.70;91.00;;;;;;5014508;28;20490;-72
2023/01/01 02:39:47;;;;;;;1.57;1.00;;;14.60;90.70;;;;;;5013854;28;20479;-72
2023/01/01 02:42:16;;;;;;;1.60;1.10;;;14.60;90.50;;;;;;5019390;28;21021;-72
2023/01/01 02:44:48;;;;;;;1.60;1.00;;;14.70;90.30;;;;;;5023364;28;20498;-72
2023/01/01 02:47:17;;;;;;;1.50;0.90;;;14.60;91.00;;;;;;4996726;28;20475;-72
2023/01/01 02:49:54;;;;;;;1.60;1.00;;;14.60;91.00;;;;;;4999941;28;20475;-73
2023/01/01 02:52:45;;;;;;;1.60;1.00;;;14.60;90.10;;;;;;5000592;28;20494;-72
2023/01/01 02:55:24;;;;;;;1.60;1.00;;;14.60;90.40;;;;;;4991014;28;20473;-72
2023/01/01 02:57:56;;;;;;;1.57;1.00;;;14.60;90.20;;;;;;5000334;28;20487;-72
2023/01/01 03:00:27;;;;;;;1.60;1.00;;;14.60;90.50;;;;;;5007476;28;20460;-72
2023/01/01 03:03:15;;;;;;;1.53;1.00;;;14.60;90.50;;;;;;5005989;28;20871;-73
2023/01/01 03:08:47;;;;;;;1.57;1.00;;;14.60;91.00;;;;;;4974081;28;20510;-72
2023/01/01 03:11:17;;;;;;;1.53;1.00;;;14.60;90.30;;;;;;4985597;28;20486;-72
2023/01/01 03:13:50;;;;;;;1.53;1.00;;;14.60;90.40;;;;;;5017785;28;20456;-72
2023/01/01 03:16:24;;;;;;;1.57;1.00;;;14.60;90.70;;;;;;4985396;28;20855;-73
2023/01/01 03:19:10;;;;;;;1.50;1.00;;;14.60;91.00;;;;;;5016129;28;20830;-73
2023/01/01 03:21:41;;;;;;;1.50;1.00;;;14.60;90.80;;;;;;4998734;28;21017;-72
2023/01/01 03:24:12;;;;;;;1.53;0.90;;;14.60;90.80;;;;;;5009130;28;20988;-73
2023/01/01 03:26:40;;;;;;;1.60;1.00;;;14.60;91.00;;;;;;4997763;28;20515;-72
2023/01/01 03:29:11;;;;;;;1.60;0.97;;;14.60;91.20;;;;;;5008740;28;20472;-73
2023/01/01 03:31:43;;;;;;;1.57;1.00;;;14.60;91.60;;;;;;5000376;28;20577;-72
2023/01/01 03:34:16;;;;;;;1.60;1.00;;;14.50;91.40;;;;;;5012269;28;20490;-72
2023/01/01 03:36:48;;;;;;;1.60;1.10;;;14.50;91.70;;;;;;4999007;28;20506;-73
2023/01/01 03:39:19;;;;;;;1.60;1.00;;;14.50;91.80;;;;;;5012903;28;20460;-72
2023/01/01 03:41:49;;;;;;;1.50;1.00;;;14.50;91.90;;;;;;5000780;28;20899;-72
2023/01/01 03:44:24;;;;;;;1.57;1.00;;;14.50;91.90;;;;;;5017802;28;20484;-72
2023/01/01 03:46:53;;;;;;;1.60;1.20;;;14.50;91.80;;;;;;5014300;28;20479;-72
2023/01/01 03:49:20;;;;;;;1.50;1.07;;;14.50;92.00;;;;;;5025487;28;20834;-72
2023/01/01 03:52:00;;;;;;;1.57;1.07;;;14.50;92.10;;;;;;5010661;28;20484;-72
2023/01/01 03:54:38;;;;;;;1.60;1.00;;;14.50;92.20;;;;;;5022835;28;20459;-72
2023/01/01 03:57:11;;;;;;;1.57;1.00;;;14.50;92.40;;;;;;5006294;28;20872;-72
2023/01/01 03:59:43;;;;;;;1.60;1.00;;;14.50;92.40;;;;;;5019765;28;20459;-73
2023/01/01 04:02:15;;;;;;;1.53;0.97;;;14.50;92.60;;;;;;5014011;28;20475;-72
2023/01/01 04:04:43;;;;;;;1.60;1.10;;;14.50;92.60;;;;;;5031155;28;20483;-72
2023/01/01 04:07:09;;;;;;;1.60;1.00;;;14.50;92.80;;;;;;5021777;28;20516;-73
2023/01/01 04:09:38;;;;;;;1.50;1.00;;;14.50;93.00;;;;;;5033615;28;20460;-73
2023/01/01 04:12:06;;;;;;;1.53;1.00;;;14.50;93.10;;;;;;5024278;28;20487;-72
2023/01/01 04:14:35;;;;;;;1.53;1.00;;;14.50;93.20;;;;;;5029517;28;20554;-72
2023/01/01 04:17:03;;;;;;;1.53;1.00;;;14.50;93.00;;;;;;5026699;28;20474;-72
2023/01/01 04:19:31;;;;;;;1.57;1.00;;;14.50;93.50;;;;;;5034688;28;20462;-72
2023/01/01 04:21:58;;;;;;;1.57;1.00;;;14.50;93.10;;;;;;5022020;28;21024;-72
2023/01/01 04:24:25;;;;;;;1.53;1.00;;;14.50;93.60;;;;;;5028001;28;20514;-72
2023/01/01 04:26:53;;;;;;;1.60;1.10;;;14.50;93.80;;;;;;5017844;28;20490;-72
2023/01/01 04:29:20;;;;;;;1.60;1.10;;;14.50;93.60;;;;;;5035717;28;20834;-73
2023/01/01 04:31:48;;;;;;;1.60;1.00;;;14.50;93.80;;;;;;5008484;28;20495;-72
2023/01/01 04:34:15;;;;;;;1.50;1.00;;;14.50;94.00;;;;;;5018730;28;20470;-73
2023/01/01 04:36:43;;;;;;;1.57;1.00;;;14.50;94.10;;;;;;5007696;28;20492;-72
2023/01/01 04:39:09;;;;;;;1.50;1.00;;;14.50;94.00;;;;;;5014817;28;20550;-72
2023/01/01 04:41:36;;;;;;;1.57;1.03;;;14.40;94.40;;;;;;5015746;28;20856;-72
2023/01/01 04:44:03;;;;;;;1.60;1.00;;;14.40;94.60;;;;;;5036904;28;20487;-72
2023/01/01 04:46:30;;;;;;;1.50;1.00;;;14.40;95.10;;;;;;5020423;28;20482;-72
2023/01/01 04:48:57;;;;;;;1.53;0.90;;;14.40;95.10;;;;;;5027037;28;20455;-73
2023/01/01 04:51:24;;;;;;;1.57;1.00;;;14.40;95.30;;;;;;5013399;28;20558;-72
2023/01/01 04:53:52;;;;;;;1.57;1.07;;;14.30;95.50;;;;;;5017294;28;20447;-73
2023/01/01 04:56:20;;;;;;;1.53;1.00;;;14.30;95.70;;;;;;5020613;28;20911;-72
2023/01/01 04:58:48;;;;;;;1.60;1.10;;;14.30;95.70;;;;;;5031103;28;20456;-73
2023/01/01 05:01:17;;;;;;;1.53;0.93;;;14.20;96.10;;;;;;5026455;28;20868;-74
2023/01/01 05:03:44;;;;;;;1.57;1.10;;;14.20;96.20;;;;;;5016523;28;20459;-74
2023/01/01 05:06:12;;;;;;;1.57;1.03;;;14.20;96.10;;;;;;5017935;28;20495;-73
2023/01/01 05:08:41;;;;;;;1.50;1.00;;;14.20;96.30;;;;;;5030278;28;20459;-73
2023/01/01 05:11:11;;;;;;;1.53;1.00;;;14.20;96.60;;;;;;5018822;28;20474;-73
2023/01/01 05:13:39;;;;;;;1.60;0.90;;;14.20;96.50;;;;;;5027431;28;20835;-73
2023/01/01 05:16:08;;;;;;;1.60;1.00;;;14.20;96.30;;;;;;5022746;28;20491;-73
2023/01/01 05:18:36;;;;;;;1.53;1.00;;;14.10;96.50;;;;;;5034628;28;20843;-73
2023/01/01 05:21:04;;;;;;;1.60;1.17;;;14.10;96.60;;;;;;5017341;28;20989;-73
2023/01/01 05:23:31;;;;;;;1.60;1.10;;;14.10;96.80;;;;;;5031845;28;20459;-73
2023/01/01 05:25:58;;;;;;;1.57;1.00;;;14.10;96.60;;;;;;5014846;28;20491;-73
2023/01/01 05:28:26;;;;;;;1.57;1.00;;;14.10;96.60;;;;;;5010900;28;20614;-75
2023/01/01 05:30:53;;;;;;;1.60;1.03;;;14.10;96.80;;;;;;5018168;28;21467;-76
2023/01/01 05:33:20;;;;;;;1.60;1.10;;;14.10;96.70;;;;;;5031669;28;20467;-78
2023/01/01 05:35:53;;;;;;;1.60;1.00;;;14.10;96.80;;;;;;5022753;28;20479;-74
2023/01/01 05:38:20;;;;;;;1.60;1.03;;;14.10;97.00;;;;;;5033286;28;20474;-75
2023/01/01 05:40:46;;;;;;;1.53;1.00;;;14.10;97.00;;;;;;5024848;28;20463;-75
2023/01/01 05:43:13;;;;;;;1.53;1.00;;;14.10;97.00;;;;;;5037116;28;20472;-75
2023/01/01 05:45:41;;;;;;;1.53;1.00;;;14.10;96.80;;;;;;5027739;28;20491;-78
2023/01/01 05:48:08;;;;;;;1.50;1.00;;;14.20;97.10;;;;;;5005300;28;20545;-76
2023/01/01 05:50:35;;;;;;;1.53;1.00;;;14.20;97.10;;;;;;5022147;28;20464;-79
2023/01/01 05:53:01;;;;;;;1.57;1.10;;;14.20;97.20;;;;;;5030653;28;20486;-75
2023/01/01 05:55:29;;;;;;;1.57;1.00;;;14.20;97.10;;;;;;5023287;28;20483;-76
2023/01/01 05:57:56;;;;;;;1.57;1.00;;;14.20;97.10;;;;;;4996505;28;20491;-77
2023/01/01 06:00:23;;;;;;;1.57;1.00;;;14.20;97.20;;;;;;5028711;28;20847;-75
2023/01/01 06:02:53;;;;;;;1.53;1.00;;;14.30;97.30;;;;;;4999291;28;20514;-74
2023/01/01 06:05:20;;;;;;;1.53;1.00;;;14.30;97.20;;;;;;5026763;28;20943;-75
2023/01/01 06:07:47;;;;;;;1.50;1.00;;;14.30;97.50;;;;;;5017481;28;20572;-75
2023/01/01 06:10:13;;;;;;;1.50;1.00;;;14.30;97.50;;;;;;5019718;28;20467;-76
2023/01/01 06:12:40;;;;;;;1.53;1.00;;;14.30;97.70;;;;;;5000999;28;20480;-75
2023/01/01 06:15:08;;;;;;;1.60;1.10;;;14.30;98.10;;;;;;5022350;28;20491;-74
2023/01/01 06:17:35;;;;;;;1.57;1.00;;;14.30;98.20;;;;;;4995985;28;20594;-76
2023/01/01 06:20:03;;;;;;;1.50;1.00;;;14.30;98.20;;;;;;5027214;28;20844;-73
2023/01/01 06:22:30;;;;;;;1.50;1.00;;;14.30;98.20;;;;;;5032973;28;20489;-76
2023/01/01 06:24:57;;;;;;;1.57;1.00;;;14.30;98.20;;;;;;5037993;28;20499;-75
2023/01/01 06:27:23;;;;;;;1.50;1.00;;;14.40;98.20;;;;;;5006905;28;20904;-75
2023/01/01 06:29:50;;;;;;;1.53;1.00;;;14.40;98.20;;;;;;5021783;28;20470;-75
2023/01/01 06:32:17;;;;;;;1.50;1.00;;;14.40;98.20;;;;;;5002586;28;20489;-73
2023/01/01 06:34:44;;;;;;;1.57;1.00;;;14.40;98.20;;;;;;5013793;28;20456;-75
2023/01/01 06:37:12;;;;;;;1.50;1.00;;;14.40;98.20;;;;;;5011505;28;20499;-74
2023/01/01 06:39:38;;;;;;;1.50;1.00;;;14.40;98.20;;;;;;5019785;28;20459;-75
2023/01/01 06:42:07;;;;;;;1.60;1.07;;;14.40;98.20;;;;;;5015431;28;20561;-74
2023/01/01 06:47:04;;;;;;;1.50;1.00;;;14.40;98.20;;;;;;5093731;23;20480;-75
2023/01/01 06:49:31;;;;;;;1.50;1.00;;;14.50;97.90;;;;;;5013188;28;20472;-76
2023/01/01 06:51:58;;;;;;;1.60;1.10;;;14.50;97.80;;;;;;4999684;28;20518;-75
2023/01/01 06:54:26;;;;;;;1.50;0.90;;;14.50;97.60;;;;;;5007841;28;20466;-74
2023/01/01 06:56:53;;;;;;;1.60;1.00;;;14.60;97.50;;;;;;4989048;28;20490;-74
2023/01/01 06:59:19;;;;;;;1.50;1.00;;;14.70;97.60;;;;;;5000452;28;20455;-76
2023/01/01 07:01:46;;;;;;;1.57;1.00;;;14.70;97.50;;;;;;4986494;28;20488;-73
2023/01/01 07:04:14;;;;;;;1.57;1.00;;;14.70;97.80;;;;;;4996520;28;20832;-76
2023/01/01 07:06:42;;;;;;;1.57;1.00;;;14.70;97.70;;;;;;4988204;28;20484;-75
2023/01/01 07:09:09;;;;;;;1.53;1.00;;;14.70;97.80;;;;;;4993513;28;20460;-74
2023/01/01 07:11:37;;;;;;;1.50;1.00;;;14.60;98.00;;;;;;4985000;28;20859;-75
2023/01/01 07:14:04;;;;;;;1.53;1.00;;;14.60;98.10;;;;;;5001848;28;20472;-75
2023/01/01 07:16:31;;;;;;;1.53;1.00;;;14.60;98.10;;;;;;4983126;28;20496;-76
2023/01/01 07:18:58;;;;;;;1.57;1.00;;;14.70;98.10;;;;;;4999905;28;20475;-74
2023/01/01 07:21:30;;;;;;;1.57;1.00;;;14.60;98.20;;;;;;4988390;28;20480;-74
2023/01/01 07:23:57;;;;;;;1.60;1.00;;;14.70;98.20;;;;;;5007268;28;20456;-76
2023/01/01 07:26:25;;;;;;;1.60;1.10;;;14.60;98.20;;;;;;4994089;28;20483;-75
2023/01/01 07:28:53;;;;;;;1.60;1.00;;;14.60;98.20;;;;;;5002263;28;20467;-73
2023/01/01 07:31:20;;;;;;;1.53;1.00;;;14.60;98.20;;;;;;4988898;28;20980;-74
2023/01/01 07:33:47;;;;;;;1.57;1.00;;;14.60;98.20;;;;;;5000584;28;20877;-74
2023/01/01 07:36:14;;;;;;;1.60;1.00;;;14.60;98.20;;;;;;4986515;28;20491;-74
2023/01/01 07:38:41;;;;;;;1.53;1.00;;;14.60;98.20;;;;;;5000006;28;20942;-77
2023/01/01 07:41:08;;;;;;;1.57;1.00;;;14.60;98.20;;;;;;4998557;28;20465;-77
2023/01/01 07:43:35;;;;;;;1.53;1.00;;;14.60;98.20;;;;;;5000924;28;20465;-74
2023/01/01 07:46:03;;;;;;;1.53;1.00;;;14.60;98.20;;;;;;4989907;28;20494;-75
2023/01/01 07:48:30;;;;;;;1.53;1.00;;;14.60;98.20;;;;;;5000779;28;20460;-75
2023/01/01 07:50:57;;;;;;;1.53;1.00;;;14.60;98.20;;;;;;4988356;28;20843;-76
2023/01/01 07:53:24;;;;;;;1.57;1.00;;;14.50;98.20;;;;;;4998144;28;20461;-76
2023/01/01 07:55:51;;;;;;;1.50;1.00;;;14.50;98.20;;;;;;4995562;28;21029;-77
2023/01/01 07:58:18;;;;;;;1.60;1.00;;;14.50;98.20;;;;;;4995532;28;20465;-76
2023/01/01 08:00:47;;;;;;;1.50;1.00;;;14.50;98.20;;;;;;4999638;28;20457;-77
2023/01/01 08:03:15;;;;;;;1.53;1.00;;;14.40;98.20;;;;;;4972593;28;20475;-76
2023/01/01 08:05:42;;;;;;;4.90;2.50;;;14.40;98.20;;;;;;4998928;28;20488;-76
2023/01/01 08:08:09;;;;;;;1.57;1.00;;;14.40;98.20;;;;;;4986353;28;20492;-76
2023/01/01 08:10:36;;;;;;;1.50;1.00;;;14.40;98.20;;;;;;4992911;28;20462;-74
2023/01/01 08:13:05;;;;;;;1.53;1.00;;;14.40;98.20;;;;;;4989027;28;20872;-74
2023/01/01 08:15:32;;;;;;;1.57;1.00;;;14.40;98.20;;;;;;4996771;28;20473;-73
2023/01/01 08:18:00;;;;;;;1.50;0.90;;;14.40;98.20;;;;;;4988030;28;20519;-75
2023/01/01 08:20:30;;;;;;;1.57;1.00;;;14.40;98.20;;;;;;5001297;28;20465;-75
2023/01/01 08:22:57;;;;;;;1.50;1.00;;;14.40;98.20;;;;;;4987310;28;20536;-74
2023/01/01 08:25:24;;;;;;;1.57;1.00;;;14.40;98.20;;;;;;4996840;28;20495;-75
2023/01/01 08:27:50;;;;;;;1.57;1.00;;;14.40;98.20;;;;;;4988723;28;21139;-76
2023/01/01 08:30:17;;;;;;;1.57;1.00;;;14.40;98.20;;;;;;5000914;28;20464;-73
2023/01/01 08:32:44;;;;;;;1.60;1.03;;;14.50;98.20;;;;;;4987970;28;20489;-74
2023/01/01 08:35:11;;;;;;;1.53;1.00;;;14.50;98.20;;;;;;4995294;28;20491;-72
2023/01/01 08:37:40;;;;;;;1.53;1.00;;;14.50;98.20;;;;;;4985259;28;20489;-72
2023/01/01 08:40:10;;;;;;;1.70;1.47;;;14.50;98.20;;;;;;4999307;28;20480;-75
2023/01/01 08:42:36;;;;;;;1.53;0.97;;;14.60;98.20;;;;;;4983131;28;20488;-76
2023/01/01 08:45:04;;;;;;;1.57;1.00;;;14.60;98.20;;;;;;4995103;28;21327;-76
2023/01/01 08:47:31;;;;;;;1.60;1.00;;;14.60;98.20;;;;;;4983825;28;20488;-75
2023/01/01 08:49:58;;;;;;;1.57;1.00;;;14.60;98.20;;;;;;4999147;28;20475;-76
2023/01/01 08:52:28;;;;;;;1.57;1.00;;;14.60;98.20;;;;;;4989856;28;20480;-75
2023/01/01 08:54:56;;;;;;;1.60;1.00;;;14.60;98.20;;;;;;5000213;28;20471;-75
2023/01/01 08:57:25;;;;;;;1.57;1.00;;;14.60;98.20;;;;;;4988522;28;20480;-75
2023/01/01 08:59:52;;;;;;;1.53;1.00;;;14.60;98.20;;;;;;4999974;28;20457;-74
2023/01/01 09:02:22;;;;;;;1.50;1.00;;;14.60;98.20;;;;;;4993888;28;20486;-74
2023/01/01 09:04:48;;;;;;;1.50;1.00;;;14.60;98.20;;;;;;4999182;28;20464;-75
2023/01/01 09:07:15;;;;;;;1.53;1.00;;;14.60;98.20;;;;;;4987834;28;21044;-78
2023/01/01 09:09:42;;;;;;;1.57;1.00;;;14.60;98.20;;;;;;5006070;28;20471;-74
2023/01/01 09:12:15;;;;;;;1.57;1.00;;;14.60;98.20;;;;;;4989908;28;20485;-76
2023/01/01 09:14:47;;;;;;;1.57;1.00;;;14.60;98.20;;;;;;4989509;28;20453;-75
2023/01/01 09:17:15;;;;;;;1.50;0.97;;;14.60;98.20;;;;;;4987242;28;20487;-75
2023/01/01 09:19:41;;;;;;;1.60;1.10;;;14.60;98.20;;;;;;4997506;28;20457;-77
2023/01/01 09:22:09;;;;;;;1.57;1.00;;;14.60;98.20;;;;;;4985278;28;20476;-75
2023/01/01 09:24:36;;;;;;;1.53;1.00;;;14.60;98.20;;;;;;4995578;28;20994;-76
2023/01/01 09:27:02;;;;;;;1.60;0.97;;;14.60;98.20;;;;;;4988960;28;20492;-76
2023/01/01 09:29:31;;;;;;;1.57;1.00;;;14.60;98.20;;;;;;5004708;28;20755;-76
2023/01/01 09:31:57;;;;;;;1.50;1.00;;;14.60;98.20;;;;;;4994287;28;20487;-77
2023/01/01 09:34:24;;;;;;;1.60;1.00;;;14.60;98.20;;;;;;5005602;28;20487;-75
2023/01/01 09:36:54;;;;;;;1.50;1.00;;;14.60;98.20;;;;;;4990122;28;20498;-75
2023/01/01 09:39:20;;;;;;;1.60;1.00;;;14.60;98.20;;;;;;5001127;28;20460;-75
2023/01/01 09:42:07;;;;;;;1.53;1.00;;;14.60;98.20;;;;;;4990515;28;20921;-75
2023/01/01 09:44:53;;;;;;;1.57;0.90;;;14.70;98.20;;;;;;5001274;28;20467;-75
2023/01/01 09:47:26;;;;;;;1.53;1.00;;;14.70;98.20;;;;;;4990256;28;20492;-74
2023/01/01 09:49:56;;;;;;;1.53;1.00;;;14.70;98.20;;;;;;4989942;28;20462;-75
2023/01/01 09:52:24;;;;;;;1.60;1.00;;;14.70;98.20;;;;;;4993372;28;20479;-75
2023/01/01 09:54:57;;;;;;;1.50;1.00;;;14.80;98.20;;;;;;5000549;28;20522;-75
2023/01/01 09:57:28;;;;;;;1.60;1.00;;;14.80;98.20;;;;;;4990581;28;20642;-72
2023/01/01 09:59:58;;;;;;;1.50;1.00;;;14.90;98.20;;;;;;4995736;28;20847;-74
2023/01/01 10:02:42;;;;;;;1.93;1.73;;;14.90;98.20;;;;;;4988090;28;20485;-74
2023/01/01 10:05:27;;;;;;;1.53;1.00;;;14.90;98.20;;;;;;4996822;28;20544;-75
2023/01/01 10:08:00;;;;;;;1.53;1.00;;;14.90;98.20;;;;;;4979779;28;21236;-74
2023/01/01 10:10:38;;;;;;;1.57;1.00;;;15.00;98.20;;;;;;4996994;28;20570;-72
2023/01/01 10:13:14;;;;;;;1.57;0.90;;;15.00;98.20;;;;;;4989212;28;20563;-75
2023/01/01 10:15:50;;;;;;;1.50;1.00;;;15.00;98.20;;;;;;4993406;28;20507;-72
2023/01/01 10:18:22;;;;;;;1.57;1.00;;;15.00;98.20;;;;;;4979419;28;20728;-74
2023/01/01 10:20:57;;;;;;;1.60;1.10;;;15.00;98.20;;;;;;4988233;28;20490;-73
2023/01/01 10:23:27;;;;;;;1.57;1.00;;;15.00;98.20;;;;;;4998866;28;20463;-73
2023/01/01 10:25:56;;;;;;;1.57;1.07;;;15.00;98.20;;;;;;4984591;28;20492;-73
2023/01/01 10:28:27;;;;;;;1.57;0.93;;;15.00;98.20;;;;;;5001622;28;20486;-72
2023/01/01 10:31:14;;;;;;;1.50;0.97;;;15.00;98.20;;;;;;4989994;28;21029;-73
2023/01/01 10:33:41;;;;;;;1.57;0.90;;;15.00;98.20;;;;;;4993087;28;20816;-72
2023/01/01 10:36:10;;;;;;;1.53;1.00;;;15.00;98.20;;;;;;4983457;28;20484;-73
2023/01/01 10:38:38;;;;;;;1.50;1.00;;;15.00;98.20;;;;;;4997332;28;20834;-73
2023/01/01 10:41:09;;;;;;;1.70;1.50;;;15.00;98.20;;;;;;4983414;28;20516;-74
2023/01/01 10:43:36;;;;;;;1.50;1.00;;;15.00;98.20;;;;;;4991247;28;20557;-73
2023/01/01 10:46:05;;;;;;;1.50;1.00;;;15.00;98.20;;;;;;4984517;28;20578;-73
2023/01/01 10:48:34;;;;;;;1.57;1.00;;;15.00;98.20;;;;;;4990355;28;20563;-73
2023/01/01 10:51:04;;;;;;;1.57;0.90;;;15.00;98.20;;;;;;4985523;28;20468;-72
2023/01/01 10:53:33;;;;;;;1.60;1.00;;;15.00;98.20;;;;;;4992419;28;20972;-72
2023/01/01 10:56:06;;;;;;;1.60;1.13;;;15.00;98.20;;;;;;4985000;28;20910;-72
2023/01/01 10:58:42;;;;;;;1.50;1.00;;;15.00;98.20;;;;;;5005796;28;20551;-73
2023/01/01 11:01:13;;;;;;;1.53;1.00;;;15.00;98.20;;;;;;4984516;28;20482;-73
2023/01/01 11:03:54;;;;;;;1.60;1.00;;;15.00;98.20;;;;;;5002243;28;20465;-74
2023/01/01 11:06:24;;;;;;;1.70;1.43;;;15.00;98.20;;;;;;4989435;28;20893;-75
2023/01/01 11:08:52;;;;;;;1.50;1.00;;;15.00;98.20;;;;;;4996266;28;20852;-74
2023/01/01 11:11:22;;;;;;;1.57;1.00;;;15.00;98.20;;;;;;4987043;28;20491;-75
2023/01/01 11:13:51;;;;;;;1.60;1.00;;;15.00;98.20;;;;;;4994320;28;20472;-73
2023/01/01 11:16:19;;;;;;;1.57;1.00;;;15.00;98.20;;;;;;4984370;28;20499;-74
2023/01/01 11:18:47;;;;;;;1.60;1.10;;;15.00;98.20;;;;;;4990158;28;20460;-75
2023/01/01 11:21:20;;;;;;;1.53;1.00;;;15.00;98.20;;;;;;4982154;28;20487;-74
2023/01/01 11:23:48;;;;;;;1.57;1.00;;;15.00;98.20;;;;;;4989059;28;20939;-72
2023/01/01 11:26:23;;;;;;;1.50;1.00;;;15.00;98.20;;;;;;4983351;28;20537;-73
2023/01/01 11:29:00;;;;;;;1.50;1.00;;;15.00;98.20;;;;;;4994831;28;20519;-73
2023/01/01 11:31:34;;;;;;;1.53;0.90;;;15.00;98.20;;;;;;4980423;28;21020;-72
2023/01/01 11:34:01;;;;;;;1.60;1.00;;;15.00;98.20;;;;;;4990509;28;20471;-72
2023/01/01 11:36:31;;;;;;;1.60;1.10;;;15.00;98.20;;;;;;4987431;28;20487;-75
2023/01/01 11:39:23;;;;;;;1.50;1.00;;;15.00;98.20;;;;;;4998867;28;20475;-75
2023/01/01 11:41:52;;;;;;;1.60;1.00;;;15.00;98.20;;;;;;4983479;28;20484;-75
2023/01/01 11:44:32;;;;;;;1.53;0.90;;;15.00;98.20;;;;;;4991630;28;21052;-73
2023/01/01 11:47:00;;;;;;;1.60;1.00;;;15.00;98.20;;;;;;4987492;28;20532;-73
2023/01/01 11:49:30;;;;;;;1.53;1.00;;;15.10;98.20;;;;;;4998226;28;20475;-74
2023/01/01 11:51:57;;;;;;;1.60;1.00;;;15.10;98.20;;;;;;4993010;28;21050;-74
2023/01/01 11:54:31;;;;;;;1.57;1.00;;;15.10;98.20;;;;;;4999260;28;20475;-75
2023/01/01 11:57:04;;;;;;;1.50;1.00;;;15.10;98.20;;;;;;4982518;28;20862;-75
2023/01/01 11:59:40;;;;;;;1.57;1.00;;;15.20;98.20;;;;;;4994014;28;20487;-75
2023/01/01 12:02:15;;;;;;;1.53;0.90;;;15.20;98.20;;;;;;4988555;28;20487;-73
2023/01/01 12:04:47;;;;;;;1.57;1.00;;;15.20;98.20;;;;;;4996499;28;20464;-75
2023/01/01 12:07:18;;;;;;;1.53;1.00;;;15.30;98.20;;;;;;4985697;28;20495;-74
2023/01/01 12:09:50;;;;;;;1.50;1.00;;;15.30;98.20;;;;;;4994137;28;20978;-75
2023/01/01 12:12:23;;;;;;;1.57;1.00;;;15.30;98.20;;;;;;4983419;28;20512;-74
2023/01/01 12:14:57;;;;;;;1.60;1.00;;;15.30;98.20;;;;;;4996386;28;20463;-73
2023/01/01 12:17:32;;;;;;;2.03;1.83;;;15.30;98.20;;;;;;4987365;28;20487;-73
2023/01/01 12:20:03;;;;;;;1.53;1.00;;;15.30;98.20;;;;;;4996049;28;20982;-74
2023/01/01 12:22:31;;;;;;;1.57;1.00;;;15.30;98.20;;;;;;4988487;28;20511;-74
2023/01/01 12:24:58;;;;;;;1.60;1.00;;;15.30;98.20;;;;;;4993284;28;20481;-73
2023/01/01 12:27:43;;;;;;;1.57;1.00;;;15.30;98.20;;;;;;4990087;28;20491;-74
2023/01/01 12:30:21;;;;;;;16.80;3.37;;;15.30;98.20;;;;;;4998202;28;20852;-76
2023/01/01 12:33:09;;;;;;;1.53;0.90;;;15.20;98.20;;;;;;4993897;28;20507;-75
2023/01/01 12:35:58;;;;;;;1.57;1.00;;;15.20;98.20;;;;;;4998185;28;21016;-72
2023/01/01 12:38:43;;;;;;;1.60;1.00;;;15.20;98.20;;;;;;4975535;28;20480;-73
2023/01/01 12:41:17;;;;;;;3.47;3.20;;;15.20;98.20;;;;;;4989455;28;20563;-74
2023/01/01 12:43:52;;;;;;;1.53;0.90;;;15.20;98.20;;;;;;4994434;28;21020;-75
2023/01/01 12:46:30;;;;;;;1.57;1.03;;;15.20;98.20;;;;;;4986638;28;20557;-75
2023/01/01 12:49:17;;;;;;;1.53;0.93;;;15.20;98.20;;;;;;4994982;28;20468;-75
2023/01/01 12:51:55;;;;;;;1.50;1.00;;;15.20;98.20;;;;;;4991176;28;20484;-76
2023/01/01 12:54:49;;;;;;;1.60;1.10;;;15.20;98.20;;;;;;4997228;28;20460;-75
2023/01/01 12:57:23;;;;;;;1.60;1.00;;;15.10;98.20;;;;;;4983542;28;20982;-74
2023/01/01 12:59:52;;;;;;;1.50;1.00;;;15.10;98.20;;;;;;4992128;28;20548;-73
2023/01/01 13:02:21;;;;;;;1.60;1.00;;;15.10;98.20;;;;;;4986947;28;21025;-74
2023/01/01 13:04:53;;;;;;;1.50;1.00;;;15.10;98.20;;;;;;4994024;28;20480;-76
2023/01/01 13:07:26;;;;;;;1.60;1.10;;;15.10;98.20;;;;;;4979715;28;20605;-74